Time;durP1;ratioP1;P1;durP2;ratioP2;P2;SDS_P1;SDS_P2;PMS_P1;PMS_P2;Temp;Humidity;BMP_temperature;BMP_pressure;BME280_temperature;BME280_humidity;BME280_pressure;Samples;Min_cycle;Max_cycle;Signal;HPM_P1;HPM_P2
2022/03/17 00:00:14;;;;;;;26.08;15.50;;;;;;;7.66;93.40;100761.09;5019058;28;20025;-88
2022/03/17 00:02:59;;;;;;;30.05;16.50;;;;;;;7.65;93.43;100764.66;5018023;28;20064;-87
2022/03/17 00:05:40;;;;;;;26.23;15.77;;;;;;;7.65;93.52;100760.22;5018369;28;20049;-88
2022/03/17 00:11:07;;;;;;;24.75;15.18;;;;;;;7.64;93.83;100762.88;5036408;28;20037;-88
2022/03/17 00:13:51;;;;;;;29.15;16.08;;;;;;;7.59;94.28;100762.94;5036320;28;20030;-87
2022/03/17 00:16:33;;;;;;;27.38;15.88;;;;;;;7.61;93.78;100763.78;5018007;28;20029;-87
2022/03/17 00:19:10;;;;;;;30.02;16.63;;;;;;;7.64;93.88;100770.84;5018901;28;20470;-87
2022/03/17 00:21:41;;;;;;;27.58;16.27;;;;;;;7.56;94.12;100765.63;5018401;28;20029;-87
2022/03/17 00:24:07;;;;;;;26.30;15.30;;;;;;;7.53;94.84;100760.31;5018510;28;20053;-87
2022/03/17 00:26:42;;;;;;;27.38;15.23;;;;;;;7.54;94.65;100764.75;5035979;28;20383;-87
2022/03/17 00:29:11;;;;;;;24.30;15.07;;;;;;;7.51;94.51;100756.81;5018547;28;20037;-88
2022/03/17 00:31:42;;;;;;;27.45;15.48;;;;;;;7.48;94.57;100761.25;5016815;28;20398;-87
2022/03/17 00:34:22;;;;;;;25.63;15.65;;;;;;;7.51;94.27;100760.34;5018288;28;20025;-88
2022/03/17 00:36:53;;;;;;;24.95;14.98;;;;;;;7.49;94.67;100759.47;5018299;28;20021;-88
2022/03/17 00:39:27;;;;;;;24.85;15.02;;;;;;;7.48;95.13;100757.72;5017194;28;20025;-87
2022/03/17 00:41:59;;;;;;;28.02;15.75;;;;;;;7.46;95.39;100760.41;5017504;28;20056;-87
2022/03/17 00:44:36;;;;;;;26.08;14.98;;;;;;;7.46;95.69;100752.44;5035249;28;20037;-88
2022/03/17 00:47:07;;;;;;;24.05;15.25;;;;;;;7.47;95.01;100756.81;5035822;28;20455;-87
2022/03/17 00:49:33;;;;;;;29.02;15.25;;;;;;;7.46;95.09;100749.78;5025791;23;20037;-79
2022/03/17 00:51:59;;;;;;;24.58;14.88;;;;;;;7.47;95.51;100751.50;5020391;28;20025;-79
2022/03/17 00:54:25;;;;;;;24.77;15.10;;;;;;;7.51;94.90;100748.81;5020794;28;20051;-80
2022/03/17 00:56:50;;;;;;;25.02;15.13;;;;;;;7.49;95.15;100749.75;5019659;28;20112;-80
2022/03/17 00:59:15;;;;;;;28.25;15.57;;;;;;;7.46;95.67;100744.44;5021659;28;20021;-80
2022/03/17 01:01:41;;;;;;;29.42;15.95;;;;;;;7.48;94.88;100747.97;5039853;28;20033;-79
2022/03/17 01:04:06;;;;;;;25.92;15.65;;;;;;;7.44;95.86;100742.72;5039714;28;20032;-80
2022/03/17 01:06:32;;;;;;;25.08;15.02;;;;;;;7.47;95.55;100743.53;5021742;28;20140;-80
2022/03/17 01:08:57;;;;;;;27.58;16.25;;;;;;;7.49;95.10;100739.13;5040072;28;20040;-80
2022/03/17 01:11:22;;;;;;;26.85;15.30;;;;;;;7.53;94.81;100747.91;5040418;28;20527;-80
2022/03/17 01:13:48;;;;;;;28.10;15.27;;;;;;;7.48;95.85;100737.34;5023152;28;20025;-80
2022/03/17 01:16:13;;;;;;;27.65;15.30;;;;;;;7.49;95.18;100738.22;5039599;28;20025;-80
2022/03/17 01:18:39;;;;;;;25.27;15.82;;;;;;;7.48;95.77;100726.72;5022949;28;20063;-79
2022/03/17 01:21:04;;;;;;;28.90;15.02;;;;;;;7.46;95.52;100727.63;5022012;28;20239;-80
2022/03/17 01:23:29;;;;;;;25.80;14.88;;;;;;;7.45;95.95;100731.16;5039509;28;20057;-80
2022/03/17 01:25:55;;;;;;;25.35;15.20;;;;;;;7.41;96.40;100727.66;5038911;28;20055;-80
2022/03/17 01:28:20;;;;;;;25.48;16.10;;;;;;;7.46;96.01;100723.19;5039193;28;20017;-80
2022/03/17 01:30:45;;;;;;;28.58;16.13;;;;;;;7.45;95.95;100721.41;5038941;28;20053;-80
2022/03/17 01:33:11;;;;;;;29.70;16.13;;;;;;;7.47;95.57;100719.63;5021497;28;20029;-80
2022/03/17 01:35:36;;;;;;;25.88;15.80;;;;;;;7.49;95.41;100719.63;5038685;28;20059;-80
2022/03/17 01:38:01;;;;;;;28.08;15.95;;;;;;;7.46;95.63;100712.56;5039357;28;20025;-79
2022/03/17 01:40:27;;;;;;;25.23;15.13;;;;;;;7.52;95.36;100716.06;5021771;28;20382;-79
2022/03/17 01:42:52;;;;;;;27.02;15.60;;;;;;;7.49;95.50;100720.50;5039606;28;20474;-80
2022/03/17 01:45:17;;;;;;;24.80;15.60;;;;;;;7.47;95.50;100709.00;5022172;28;20080;-80
2022/03/17 01:47:43;;;;;;;29.13;17.13;;;;;;;7.47;95.77;100711.66;5039567;28;20021;-80
2022/03/17 01:50:13;;;;;;;26.98;15.85;;;;;;;7.47;96.01;100713.44;5040059;28;20037;-81
2022/03/17 01:52:39;;;;;;;32.08;16.77;;;;;;;7.45;95.41;100710.78;5027195;28;20048;-80
2022/03/17 01:55:05;;;;;;;26.70;16.15;;;;;;;7.46;95.92;100699.28;5043227;28;20037;-80
2022/03/17 01:57:31;;;;;;;27.83;16.33;;;;;;;7.47;95.46;100701.03;5044737;28;20009;-81
2022/03/17 01:59:59;;;;;;;28.33;16.63;;;;;;;7.46;95.51;100693.97;5077194;22;20450;-80
2022/03/17 02:02:25;;;;;;;29.58;16.70;;;;;;;7.42;96.35;100694.03;5035397;28;20371;-81
2022/03/17 02:04:51;;;;;;;29.10;16.60;;;;;;;7.43;95.90;100696.66;5017892;28;20505;-80
2022/03/17 02:07:16;;;;;;;28.38;15.68;;;;;;;7.46;95.62;100680.69;5036155;28;20021;-82
2022/03/17 02:09:44;;;;;;;28.48;16.55;;;;;;;7.46;95.91;100682.44;5035954;28;20045;-81
2022/03/17 02:15:05;;;;;;;28.42;16.50;;;;;;;7.42;95.65;100663.00;5037602;28;20036;-82
2022/03/17 02:17:32;;;;;;;27.63;16.05;;;;;;;7.46;95.91;100666.50;5019429;28;20375;-82
2022/03/17 02:20:00;;;;;;;27.35;16.10;;;;;;;7.46;95.91;100666.50;5019182;28;20025;-82
2022/03/17 02:22:26;;;;;;;26.33;14.82;;;;;;;7.47;95.02;100671.78;5018425;28;20025;-81
2022/03/17 02:27:47;;;;;;;28.30;16.70;;;;;;;7.45;95.60;100660.31;5034655;28;20052;-81
2022/03/17 02:30:26;;;;;;;26.80;17.67;;;;;;;7.51;95.01;100655.81;5056222;22;20099;-84
2022/03/17 02:33:08;;;;;;;25.80;15.98;;;;;;;7.47;96.04;100650.53;5024308;28;20025;-83
2022/03/17 02:35:39;;;;;;;29.80;16.67;;;;;;;7.47;95.60;100653.19;5034105;28;20033;-85
2022/03/17 02:38:07;;;;;;;27.92;16.70;;;;;;;7.44;95.77;100642.63;5033989;28;20024;-84
2022/03/17 02:40:55;;;;;;;28.40;15.73;;;;;;;7.42;96.10;100636.41;5016213;28;20112;-83
2022/03/17 02:43:28;;;;;;;25.65;16.52;;;;;;;7.46;95.54;100635.50;5034762;28;20036;-82
2022/03/17 02:45:54;;;;;;;27.02;16.50;;;;;;;7.44;96.24;100629.34;5017098;28;20025;-81
2022/03/17 02:48:27;;;;;;;31.58;17.17;;;;;;;7.45;96.27;100622.22;5031308;28;20049;-82
2022/03/17 02:50:55;;;;;;;28.35;16.73;;;;;;;7.46;96.28;100616.03;5017046;28;20121;-81
2022/03/17 02:53:29;;;;;;;28.60;16.90;;;;;;;7.47;96.19;100616.00;5016854;28;20061;-82
2022/03/17 02:55:54;;;;;;;;;;;;;;;7.54;95.19;100611.50;5018338;28;20021;-81
2022/03/17 02:58:22;;;;;;;27.52;16.45;;;;;;;7.54;95.30;100605.31;5017185;28;20258;-81
2022/03/17 03:00:54;;;;;;;29.77;17.60;;;;;;;7.56;95.53;100607.03;5021227;28;20022;-82
2022/03/17 03:03:51;;;;;;;26.25;16.77;;;;;;;7.56;95.32;100606.16;5027688;28;20037;-82
2022/03/17 03:06:25;;;;;;;30.17;17.20;;;;;;;7.53;96.35;100603.53;5031850;28;20021;-83
2022/03/17 03:08:50;;;;;;;27.13;16.02;;;;;;;7.51;96.40;100592.94;5045265;28;20025;-81
2022/03/17 03:11:21;;;;;;;27.70;16.88;;;;;;;7.54;96.01;100592.00;5038728;28;20374;-83
2022/03/17 03:13:53;;;;;;;29.35;17.58;;;;;;;7.51;96.30;100589.38;5018819;28;20037;-83
2022/03/17 03:16:34;;;;;;;25.38;16.38;;;;;;;7.48;96.12;100588.53;5016757;28;20456;-82
2022/03/17 03:18:59;;;;;;;30.88;17.13;;;;;;;7.50;96.22;100585.84;5017253;28;20025;-81
2022/03/17 03:21:28;;;;;;;32.60;17.90;;;;;;;7.51;96.19;100586.72;5037711;28;20025;-82
2022/03/17 03:24:09;;;;;;;29.17;17.63;;;;;;;7.50;96.46;100585.84;5020989;28;20025;-81
2022/03/17 03:26:40;;;;;;;28.83;17.48;;;;;;;7.53;95.83;100584.94;5020642;28;20030;-81
2022/03/17 03:29:20;;;;;;;29.75;18.48;;;;;;;7.48;96.82;100596.50;5038080;28;20044;-81
2022/03/17 03:31:45;;;;;;;30.42;18.67;;;;;;;7.51;96.77;100592.03;5020508;28;20032;-80
2022/03/17 03:34:10;;;;;;;33.03;17.38;;;;;;;7.58;95.24;100596.38;5039076;28;20025;-81
2022/03/17 03:39:19;;;;;;;30.55;18.73;;;;;;;7.60;95.23;100591.94;5038978;28;20044;-81
2022/03/17 03:41:45;;;;;;;30.88;18.77;;;;;;;7.59;95.63;100595.50;5020767;28;20022;-81
2022/03/17 03:44:12;;;;;;;32.38;17.88;;;;;;;7.60;95.35;100592.81;5026905;28;20101;-83
2022/03/17 03:46:41;;;;;;;32.42;19.50;;;;;;;7.60;95.02;100615.88;5028669;28;20022;-82
2022/03/17 03:49:07;;;;;;;28.80;17.15;;;;;;;7.60;95.62;100618.53;5023200;28;20116;-82
2022/03/17 03:51:35;;;;;;;30.52;17.77;;;;;;;7.58;95.73;100625.63;5038022;28;20114;-83
2022/03/17 03:54:17;;;;;;;30.98;17.63;;;;;;;7.65;94.57;100619.34;5019644;28;20022;-83
2022/03/17 03:56:48;;;;;;;29.63;18.17;;;;;;;7.68;94.30;100621.09;5020025;28;20061;-83
2022/03/17 03:59:20;;;;;;;31.30;19.55;;;;;;;7.65;95.01;100616.69;5019325;28;20021;-81
2022/03/17 04:01:50;;;;;;;31.05;18.63;;;;;;;7.68;94.49;100615.78;5019464;28;20026;-82
2022/03/17 04:04:19;;;;;;;31.58;19.52;;;;;;;7.70;94.50;100622.84;5019651;28;20033;-82
2022/03/17 04:06:59;;;;;;;29.25;18.20;;;;;;;7.73;94.10;100621.03;5037391;28;20025;-82
2022/03/17 04:09:27;;;;;;;29.30;18.58;;;;;;;7.73;94.25;100626.34;5019297;28;20025;-82
2022/03/17 04:11:54;;;;;;;26.25;17.48;;;;;;;7.77;93.70;100623.63;5038384;28;20091;-81
2022/03/17 04:14:19;;;;;;;30.90;18.38;;;;;;;7.94;91.91;100633.13;5022182;28;20021;-82
2022/03/17 04:16:46;;;;;;;32.50;19.65;;;;;;;8.07;90.33;100622.31;5021623;28;20017;-82
2022/03/17 04:19:12;;;;;;;31.05;18.75;;;;;;;8.09;90.29;100632.03;5040209;28;20049;-84
2022/03/17 04:21:38;;;;;;;30.83;19.10;;;;;;;8.20;89.27;100625.69;5021233;28;20025;-82
2022/03/17 04:24:04;;;;;;;32.80;19.10;;;;;;;8.23;88.84;100633.63;5037648;28;20030;-82
2022/03/17 04:26:45;;;;;;;31.08;19.10;;;;;;;8.27;88.77;100635.38;5022495;28;20108;-83
2022/03/17 04:29:12;;;;;;;30.70;19.05;;;;;;;8.36;87.50;100635.22;5039341;28;20110;-82
2022/03/17 04:31:47;;;;;;;31.90;19.17;;;;;;;8.38;87.02;100636.06;5020805;28;20025;-82
2022/03/17 04:34:12;;;;;;;32.97;18.90;;;;;;;8.40;87.21;100640.50;5020476;28;20026;-83
2022/03/17 04:36:38;;;;;;;30.77;19.20;;;;;;;8.48;86.11;100643.91;5020862;28;20052;-82
2022/03/17 04:39:05;;;;;;;32.33;19.25;;;;;;;8.49;85.82;100651.88;5022128;28;20018;-82
2022/03/17 04:41:31;;;;;;;29.80;18.85;;;;;;;8.49;86.13;100651.88;5039138;28;20028;-82
2022/03/17 04:43:56;;;;;;;32.00;19.02;;;;;;;8.48;86.03;100659.88;5038714;28;20427;-82
2022/03/17 04:46:22;;;;;;;32.28;19.50;;;;;;;8.48;85.68;100650.09;5019817;28;20025;-80
2022/03/17 04:48:51;;;;;;;32.17;19.05;;;;;;;8.52;85.52;100653.63;5018317;28;20022;-80
2022/03/17 04:51:16;;;;;;;32.47;18.70;;;;;;;8.53;85.83;100652.69;5019126;28;20029;-82
2022/03/17 04:53:48;;;;;;;33.67;19.50;;;;;;;8.55;84.82;100650.91;5019195;28;20025;-81
2022/03/17 04:56:16;;;;;;;32.45;19.80;;;;;;;8.58;85.47;100653.53;5022960;28;20017;-82
2022/03/17 04:58:42;;;;;;;30.63;19.48;;;;;;;8.54;84.80;100653.56;5026395;28;20385;-82
2022/03/17 05:01:09;;;;;;;32.58;18.90;;;;;;;8.53;85.57;100658.00;5043842;28;20018;-79
2022/03/17 05:03:36;;;;;;;33.00;20.50;;;;;;;8.52;85.24;100664.25;5025617;28;20029;-83
2022/03/17 05:06:02;;;;;;;34.47;19.60;;;;;;;8.53;85.34;100659.81;5021581;28;20021;-82
2022/03/17 05:08:28;;;;;;;32.25;19.75;;;;;;;8.53;85.01;100673.97;5019169;28;20041;-82
2022/03/17 05:10:54;;;;;;;29.38;18.77;;;;;;;8.53;84.68;100673.97;5019032;28;20060;-81
2022/03/17 05:13:21;;;;;;;31.55;19.88;;;;;;;8.57;84.83;100669.50;5038373;28;20079;-82
2022/03/17 05:15:47;;;;;;;30.80;20.33;;;;;;;8.55;85.00;100672.22;5019116;28;20068;-81
2022/03/17 05:18:16;;;;;;;32.63;19.45;;;;;;;8.54;84.81;100673.09;5018905;28;20112;-81
2022/03/17 05:20:41;;;;;;;31.55;19.58;;;;;;;8.59;83.97;100673.94;5020019;28;20029;-82
2022/03/17 05:23:08;;;;;;;32.03;20.35;;;;;;;8.55;84.71;100688.19;5035408;28;20021;-81
2022/03/17 05:25:35;;;;;;;34.10;20.33;;;;;;;8.56;84.59;100683.69;5018356;28;20025;-82
2022/03/17 05:28:00;;;;;;;35.42;20.33;;;;;;;8.56;84.35;100687.25;5035793;28;20022;-81
2022/03/17 05:30:27;;;;;;;33.28;21.42;;;;;;;8.58;84.12;100690.81;5018393;28;20160;-82
2022/03/17 05:32:52;;;;;;;31.95;19.48;;;;;;;8.61;83.92;100697.84;5018514;28;20076;-83
2022/03/17 05:35:18;;;;;;;34.22;21.08;;;;;;;8.59;84.02;100687.25;5018825;28;20052;-83
2022/03/17 05:37:43;;;;;;;30.63;20.20;;;;;;;8.63;83.61;100695.19;5018073;28;20027;-83
2022/03/17 05:40:15;;;;;;;33.72;20.52;;;;;;;8.63;83.52;100697.84;5018299;28;20124;-83
2022/03/17 05:42:47;;;;;;;32.15;20.45;;;;;;;8.58;83.80;100690.81;5019618;28;20030;-85
2022/03/17 05:45:15;;;;;;;32.53;20.13;;;;;;;8.57;84.18;100697.00;5018247;28;20036;-87
2022/03/17 05:47:49;;;;;;;30.75;19.98;;;;;;;8.57;83.73;100710.31;5017283;28;20028;-87
2022/03/17 05:50:17;;;;;;;32.50;20.20;;;;;;;8.57;84.43;100712.97;5016537;28;20029;-87
2022/03/17 05:52:44;;;;;;;37.40;21.58;;;;;;;8.60;83.77;100714.75;5017050;28;20040;-86
2022/03/17 05:55:52;;;;;;;35.22;20.55;;;;;;;8.57;84.02;100717.41;5016491;28;20111;-86
2022/03/17 05:58:29;;;;;;;33.90;21.42;;;;;;;8.54;84.08;100721.00;5025999;28;20029;-86
2022/03/17 06:01:04;;;;;;;34.08;21.48;;;;;;;8.54;84.07;100733.44;5016236;28;20107;-86
2022/03/17 06:03:29;;;;;;;35.25;21.05;;;;;;;8.54;84.76;100729.00;5033832;28;20569;-86
2022/03/17 06:05:55;;;;;;;33.10;21.45;;;;;;;8.54;84.92;100734.31;5016406;28;20025;-86
2022/03/17 06:08:20;;;;;;;35.15;20.63;;;;;;;8.53;84.66;100732.53;5018487;28;20021;-85
2022/03/17 06:11:15;;;;;;;34.47;21.58;;;;;;;8.53;85.09;100742.34;5019809;28;20025;-86
2022/03/17 06:13:43;;;;;;;31.67;20.05;;;;;;;8.53;84.70;100743.19;4973110;28;20038;-85
2022/03/17 06:16:09;;;;;;;37.85;21.98;;;;;;;8.52;84.75;100748.53;4973915;28;20062;-86
2022/03/17 06:19:10;;;;;;;36.97;21.90;;;;;;;8.53;84.31;100753.84;4990759;28;20430;-89
2022/03/17 06:21:36;;;;;;;33.15;20.48;;;;;;;8.52;84.88;100760.06;5014009;28;20037;-87
2022/03/17 06:24:01;;;;;;;33.33;20.85;;;;;;;8.55;84.30;100762.72;5015718;28;20032;-89
2022/03/17 06:26:26;;;;;;;36.08;21.20;;;;;;;8.53;84.38;100764.47;5016108;28;20064;-89
2022/03/17 06:28:52;;;;;;;33.47;21.10;;;;;;;8.52;84.50;100768.06;5015909;28;20026;-89
2022/03/17 06:31:22;;;;;;;34.38;21.35;;;;;;;8.52;84.82;100772.50;5015663;28;20026;-90
2022/03/17 06:34:25;;;;;;;34.05;20.52;;;;;;;8.46;86.10;100773.44;5016237;28;20031;-90
2022/03/17 06:36:50;;;;;;;33.50;21.48;;;;;;;8.40;88.05;100773.56;5016356;28;20025;-87
2022/03/17 06:39:16;;;;;;;36.08;22.30;;;;;;;8.36;88.47;100784.22;5015603;28;20072;-89
2022/03/17 06:41:41;;;;;;;36.50;21.23;;;;;;;8.37;88.46;100785.13;5015865;28;20443;-89
2022/03/17 06:44:29;;;;;;;32.58;21.52;;;;;;;8.34;87.81;100790.47;5015780;28;20482;-90
2022/03/17 06:47:01;;;;;;;33.83;21.40;;;;;;;8.33;88.49;100799.34;5016406;28;20033;-89
2022/03/17 06:49:26;;;;;;;36.30;21.70;;;;;;;8.33;88.98;100802.00;5033465;28;20018;-90
2022/03/17 06:51:51;;;;;;;33.67;21.30;;;;;;;8.32;88.79;100814.44;5033202;28;20028;-89
2022/03/17 06:54:17;;;;;;;32.67;20.90;;;;;;;8.32;89.34;100819.78;5015567;28;20048;-89
2022/03/17 06:56:42;;;;;;;38.20;23.27;;;;;;;8.30;90.08;100818.88;5019470;28;20022;-88
2022/03/17 06:59:07;;;;;;;40.03;26.00;;;;;;;8.26;91.28;100826.03;5019538;28;20033;-88
2022/03/17 07:01:33;;;;;;;55.10;31.42;;;;;;;8.27;92.01;100837.56;5037017;28;20116;-89
2022/03/17 07:04:01;;;;;;;57.00;31.40;;;;;;;8.24;93.13;100834.94;5019491;28;20095;-87
2022/03/17 07:06:26;;;;;;;45.22;25.65;;;;;;;8.22;95.14;100839.41;5037497;28;20025;-89
2022/03/17 07:08:52;;;;;;;38.72;24.00;;;;;;;8.21;96.52;100837.63;5020544;28;20034;-88
2022/03/17 07:11:23;;;;;;;43.20;24.92;;;;;;;8.21;98.86;100848.28;5019532;28;20036;-89
2022/03/17 07:13:49;;;;;;;38.88;24.90;;;;;;;8.18;99.66;100853.63;5019530;28;20032;-89
2022/03/17 07:16:14;;;;;;;44.08;25.55;;;;;;;8.16;100.00;100862.50;5037241;28;20072;-90
2022/03/17 07:18:39;;;;;;;43.85;26.35;;;;;;;8.11;100.00;100869.66;5019154;28;20402;-89
2022/03/17 07:21:14;;;;;;;43.55;26.02;;;;;;;7.97;100.00;100868.91;5019479;28;20025;-88
2022/03/17 07:23:39;;;;;;;45.22;27.80;;;;;;;7.88;100.00;100884.06;5023057;28;20279;-89
2022/03/17 07:26:05;;;;;;;46.10;27.00;;;;;;;7.77;100.00;100883.28;5019239;28;20025;-87
2022/03/17 07:28:30;;;;;;;48.80;29.02;;;;;;;7.67;100.00;100890.44;5037071;28;20029;-89
2022/03/17 07:30:56;;;;;;;46.40;29.67;;;;;;;7.59;100.00;100894.06;5036557;28;20112;-88
2022/03/17 07:33:21;;;;;;;47.42;28.02;;;;;;;7.57;100.00;100895.84;5019146;28;20055;-88
2022/03/17 07:35:49;;;;;;;48.30;29.30;;;;;;;7.51;100.00;100900.31;5018924;28;20021;-88
2022/03/17 07:38:14;;;;;;;49.47;29.90;;;;;;;7.47;100.00;100902.13;5019171;28;20017;-88
2022/03/17 07:40:40;;;;;;;51.10;30.67;;;;;;;7.45;100.00;100906.53;5018859;28;20033;-89
2022/03/17 07:43:10;;;;;;;53.50;30.50;;;;;;;7.43;100.00;100906.56;5034125;28;20061;-88
2022/03/17 07:45:41;;;;;;;54.33;32.13;;;;;;;7.41;100.00;100915.44;5018707;28;20075;-89
2022/03/17 07:51:47;;;;;;;53.95;31.38;;;;;;;7.44;100.00;100923.38;5036753;28;20536;-87
2022/03/17 07:54:23;;;;;;;60.53;32.95;;;;;;;7.44;100.00;100921.63;5002024;28;20074;-88
2022/03/17 07:56:49;;;;;;;61.00;34.58;;;;;;;7.46;100.00;100924.25;5013357;28;20032;-88
2022/03/17 07:59:30;;;;;;;66.63;35.55;;;;;;;7.38;100.00;100929.63;5018501;28;20025;-88
2022/03/17 08:01:57;;;;;;;62.88;36.10;;;;;;;7.36;100.00;100936.72;5002904;28;20029;-88
2022/03/17 08:04:26;;;;;;;69.18;36.28;;;;;;;7.38;100.00;100948.22;5018367;28;20025;-88
2022/03/17 08:07:17;;;;;;;66.03;36.28;;;;;;;7.33;100.00;100944.72;5017622;28;20028;-88
2022/03/17 08:09:43;;;;;;;65.15;35.08;;;;;;;7.38;100.00;100945.56;5014611;28;20057;-89
2022/03/17 08:12:11;;;;;;;68.28;36.90;;;;;;;7.34;100.00;100941.16;5018426;28;20437;-88
2022/03/17 08:15:24;;;;;;;68.22;37.33;;;;;;;7.33;100.00;100944.72;5032015;28;20037;-88
2022/03/17 08:21:26;;;;;;;64.82;36.83;;;;;;;7.40;100.00;100953.50;5035954;28;20402;-89
2022/03/17 08:24:14;;;;;;;72.97;39.60;;;;;;;7.40;100.00;100959.72;5017811;28;20505;-87
2022/03/17 08:26:39;;;;;;;73.18;38.15;;;;;;;7.39;100.00;100963.28;5017860;28;20021;-89
2022/03/17 08:29:05;;;;;;;68.35;37.67;;;;;;;7.40;100.00;100973.00;5017773;28;20036;-89
2022/03/17 08:31:59;;;;;;;71.43;38.10;;;;;;;7.54;100.00;100969.38;5074823;23;20113;-84
2022/03/17 08:34:32;;;;;;;71.47;39.95;;;;;;;7.38;100.00;100982.75;5053326;28;20084;-83
2022/03/17 08:37:16;;;;;;;72.53;39.08;;;;;;;7.40;100.00;100996.03;5058033;28;20119;-84
2022/03/17 08:39:44;;;;;;;76.47;38.35;;;;;;;7.46;100.00;100993.34;5059860;28;20036;-84
2022/03/17 08:42:39;;;;;;;66.20;35.83;;;;;;;7.39;100.00;101029.72;5037534;28;20026;-83
2022/03/17 08:50:43;;;;;;;;;;;;;;;6.86;100.00;101072.34;5052715;28;20094;-83
2022/03/17 08:53:21;;;;;;;24.88;16.60;;;;;;;6.72;100.00;101075.94;5034666;28;19909;-83
2022/03/17 08:55:55;;;;;;;32.83;18.40;;;;;;;6.69;100.00;101081.25;5034849;28;20045;-82
2022/03/17 08:58:23;;;;;;;23.73;14.95;;;;;;;6.55;100.00;101087.44;5021530;28;20483;-82
2022/03/17 09:01:08;;;;;;;24.42;14.07;;;;;;;6.49;100.00;101095.41;5041060;28;20148;-82
2022/03/17 09:03:42;;;;;;;25.85;14.63;;;;;;;6.45;100.00;101094.50;5025202;28;20029;-83
2022/03/17 09:06:16;;;;;;;20.30;13.13;;;;;;;6.36;100.00;101106.03;5045980;28;20021;-82
2022/03/17 09:09:28;;;;;;;23.75;13.88;;;;;;;6.30;100.00;101108.66;5032750;28;20025;-83
2022/03/17 09:11:59;;;;;;;22.65;14.70;;;;;;;6.32;100.00;101113.94;5024061;28;20140;-85
2022/03/17 09:14:33;;;;;;;23.33;14.07;;;;;;;6.34;100.00;101128.13;5028313;28;20387;-84
2022/03/17 09:17:10;;;;;;;25.42;13.85;;;;;;;6.41;100.00;101124.59;5030988;28;20148;-85
2022/03/17 09:19:38;;;;;;;20.75;13.32;;;;;;;6.45;100.00;101136.06;5030294;28;20026;-85
2022/03/17 09:22:10;;;;;;;25.30;14.55;;;;;;;6.51;100.00;101138.75;5048908;28;20036;-85
2022/03/17 09:24:39;;;;;;;20.08;13.20;;;;;;;6.47;100.00;101150.22;5048052;28;20052;-84
2022/03/17 09:27:20;;;;;;;;;;;;;;;;;;;;;
2022/03/17 09:29:49;;;;;;;23.05;14.07;;;;;;;6.55;100.00;101151.13;5045148;28;20080;-84
2022/03/17 09:32:21;;;;;;;23.02;14.05;;;;;;;6.53;100.00;101158.19;5019461;28;20026;-83
2022/03/17 09:34:46;;;;;;;20.85;13.23;;;;;;;6.56;100.00;101166.16;5039568;28;20352;-83
2022/03/17 09:37:17;;;;;;;20.73;14.18;;;;;;;6.58;100.00;101169.69;5023398;28;20025;-83
2022/03/17 09:39:46;;;;;;;21.52;13.98;;;;;;;6.63;100.00;101168.81;5022697;28;20025;-82
2022/03/17 09:42:17;;;;;;;24.50;13.88;;;;;;;6.62;100.00;101175.03;5024000;28;20025;-83
2022/03/17 09:45:03;;;;;;;17.80;12.82;;;;;;;6.67;100.00;101174.16;5041864;28;20056;-84
2022/03/17 09:47:49;;;;;;;18.52;13.10;;;;;;;6.67;100.00;101178.56;5025791;28;20021;-83
2022/03/17 09:50:15;;;;;;;23.13;13.57;;;;;;;6.65;100.00;101185.66;5043361;28;20060;-84
2022/03/17 09:52:42;;;;;;;20.05;13.40;;;;;;;6.64;100.00;101189.16;5026189;28;20482;-84
2022/03/17 09:55:10;;;;;;;23.25;13.52;;;;;;;6.69;100.00;101201.56;5025700;28;20031;-84
2022/03/17 09:57:37;;;;;;;16.90;10.65;;;;;;;6.57;100.00;101199.78;5025689;28;20021;-82
2022/03/17 10:00:03;;;;;;;16.67;9.00;;;;;;;6.44;100.00;101217.44;5044200;28;20025;-84
2022/03/17 10:02:30;;;;;;;14.52;7.13;;;;;;;6.34;100.00;101215.66;5026821;28;20017;-84
2022/03/17 10:04:55;;;;;;;14.13;7.40;;;;;;;6.30;100.00;101230.69;5027606;28;20119;-84
2022/03/17 10:07:21;;;;;;;14.90;7.32;;;;;;;6.26;100.00;101229.75;5022491;28;20025;-83
2022/03/17 10:09:47;;;;;;;13.98;7.22;;;;;;;6.28;100.00;101235.09;5021418;28;20021;-83
2022/03/17 10:12:43;;;;;;;12.40;6.95;;;;;;;6.28;100.00;101239.50;5021495;28;20047;-81
2022/03/17 10:15:17;;;;;;;13.18;6.90;;;;;;;6.27;100.00;101257.19;5039972;28;20037;-83
2022/03/17 10:17:43;;;;;;;13.93;6.88;;;;;;;6.23;100.00;101250.09;5023439;28;20071;-84
2022/03/17 10:20:16;;;;;;;12.95;7.00;;;;;;;6.29;100.00;101257.22;5042000;28;20022;-84
2022/03/17 10:23:01;;;;;;;11.98;6.78;;;;;;;6.34;100.00;101256.31;5042377;28;20165;-84
2022/03/17 10:25:32;;;;;;;13.80;6.32;;;;;;;6.39;100.00;101276.69;5025488;28;20018;-84
2022/03/17 10:27:58;;;;;;;12.80;6.35;;;;;;;6.35;100.00;101289.03;5043782;28;20371;-82
2022/03/17 10:30:35;;;;;;;9.73;5.72;;;;;;;6.43;100.00;101284.66;5043511;28;20057;-84
2022/03/17 10:33:18;;;;;;;11.48;5.68;;;;;;;6.50;100.00;101282.91;5031777;28;20028;-84
2022/03/17 10:35:48;;;;;;;8.50;5.00;;;;;;;6.54;100.00;101284.69;5045867;28;20414;-85
2022/03/17 10:38:16;;;;;;;13.35;5.60;;;;;;;6.57;100.00;101284.69;5047684;28;20021;-84
2022/03/17 10:40:44;;;;;;;10.75;4.60;;;;;;;6.56;100.00;101292.66;5030823;28;20348;-84
2022/03/17 10:43:33;;;;;;;;;;;;;;;;;;;;;
2022/03/17 10:46:16;;;;;;;7.68;4.40;;;;;;;6.62;100.00;101302.41;5038479;28;20112;-84
2022/03/17 10:49:03;;;;;;;12.90;4.30;;;;;;;6.59;100.00;101312.13;5021647;28;20025;-84
2022/03/17 10:51:41;;;;;;;10.10;4.50;;;;;;;6.59;100.00;101309.50;5040908;28;20099;-83
2022/03/17 10:54:20;;;;;;;10.57;4.25;;;;;;;6.61;100.00;101328.06;5031324;28;20041;-84
2022/03/17 10:57:04;;;;;;;11.82;5.80;;;;;;;6.63;100.00;101331.59;5044593;28;20029;-84
2022/03/17 10:59:39;;;;;;;7.30;3.78;;;;;;;6.65;100.00;101335.13;5045073;28;20084;-84
2022/03/17 11:02:08;;;;;;;14.43;4.82;;;;;;;6.68;100.00;101345.78;5045970;28;20030;-83
2022/03/17 11:04:35;;;;;;;11.30;4.80;;;;;;;6.65;100.00;101350.19;5027955;28;20052;-84
2022/03/17 11:07:13;;;;;;;11.60;5.10;;;;;;;6.51;100.00;101359.00;5026964;28;20364;-84
2022/03/17 11:09:40;;;;;;;10.55;5.00;;;;;;;6.51;100.00;101369.59;5035053;22;20028;-81
2022/03/17 11:12:17;;;;;;;11.57;5.05;;;;;;;6.47;100.00;101374.00;5044804;28;20037;-80
2022/03/17 11:14:44;;;;;;;15.30;5.10;;;;;;;6.49;100.00;101371.38;5027411;28;20091;-82
2022/03/17 11:17:14;;;;;;;9.00;4.35;;;;;;;6.46;100.00;101377.53;5026054;28;20033;-83
2022/03/17 11:19:44;;;;;;;10.98;3.90;;;;;;;6.52;100.00;101379.31;5024948;28;20076;-83
2022/03/17 11:22:14;;;;;;;9.20;3.38;;;;;;;6.58;100.00;101384.66;5028856;28;20029;-82
2022/03/17 11:24:39;;;;;;;13.27;3.53;;;;;;;6.65;100.00;101380.25;5042971;28;20029;-82
2022/03/17 11:27:13;;;;;;;7.47;3.03;;;;;;;6.75;100.00;101383.84;5025370;28;20030;-83
2022/03/17 11:29:48;;;;;;;6.45;2.85;;;;;;;6.77;100.00;101386.50;5024812;28;20030;-82
2022/03/17 11:32:24;;;;;;;9.15;2.25;;;;;;;6.64;100.00;101390.88;5024381;28;20045;-82
2022/03/17 11:34:49;;;;;;;7.15;2.10;;;;;;;6.59;100.00;101394.41;5025756;28;20026;-81
2022/03/17 11:37:27;;;;;;;9.02;2.42;;;;;;;6.62;100.00;101400.59;5042984;28;20078;-81
2022/03/17 11:40:06;;;;;;;9.98;2.40;;;;;;;6.58;100.00;101408.56;5025616;28;20029;-80
2022/03/17 11:42:38;;;;;;;6.30;2.20;;;;;;;6.64;100.00;101409.47;5046334;28;20036;-82
2022/03/17 11:45:12;;;;;;;8.07;2.30;;;;;;;6.64;100.00;101422.72;5046478;28;20032;-81
2022/03/17 11:47:43;;;;;;;9.38;2.63;;;;;;;6.63;100.00;101423.59;5028881;28;20032;-81
2022/03/17 11:50:39;;;;;;;8.52;2.35;;;;;;;6.58;100.00;101428.88;5028513;28;20167;-80
2022/03/17 11:53:14;;;;;;;10.65;3.28;;;;;;;6.55;100.00;101429.75;5037156;28;20410;-82
2022/03/17 11:55:42;;;;;;;6.13;1.70;;;;;;;6.52;100.00;101427.09;5053288;28;20030;-81
2022/03/17 11:58:19;;;;;;;5.43;1.80;;;;;;;6.47;100.00;101439.44;5053658;28;20108;-81
2022/03/17 12:00:55;;;;;;;8.57;2.33;;;;;;;6.44;100.00;101434.13;5054298;28;20037;-82